To NAV CANADA Home Page Login to a new session Search on AWWS site Feedback and Comments Disclaimer Vers la page française équivalente Tips FAQ What's new on the site To the Forecasts and Observations / NOTAM section To "File a Flight Plan" website Publications and other links Update of the User's profile FIC Telephone Numbers My Weather Data Folder Route Weather Data Regional Weather Data Local Weather Data To the Forecasts and Observations / NOTAM section
Request Generated 04/25/2014 at 01:14:47 UTC . Weather information available at that time is displayed.

METAR/TAF

WINNIPEG/JAMES ARMSTRONG RICHARDSON INTL/MB    

METAR CYWG 250100Z 08007KT 2SM -SN BR OVC005 00/M00 A2978 RMK ST8
SLP094=
SPECI CYWG 250018Z 12007KT 2SM -SN BR OVC004 01/00 A2978 RMK ST8
SLP094=
METAR CYWG 250000Z 11010KT 3SM -SN OVC005 01/00 A2978 RMK ST8 SLP093=
SPECI CYWG 242324Z 12010KT 8SM -RASN BKN007 OVC018 02/01 A2977 RMK
SF6SC2 SLP091=
SPECI CYWG 242316Z 12011KT 8SM -RA BKN007 OVC018 02/01 A2977 RMK
SF6SC2 SLP091=
METAR CYWG 242300Z 12010KT 8SM -RA SCT007 OVC018 02/01 A2977 RMK
SF4SC4 SLP091=

TAF CYWG 242338Z 2500/2524 12012KT 4SM -SNRA BR OVC006 TEMPO
2500/2508 6SM -RA BR SCT006 OVC015
FM250800 10008KT 3SM -SNRA BR OVC005
FM251600 07008KT 5SM -DZ BR SCT008 OVC015
FM252300 08010KT P6SM BKN025
RMK NXT FCST BY 250600Z=
Your time UTC time
Weather data provided by Environment Canada and NAV CANADA